Impacts TAF Board INFO
FOR SITUATIONAL AWARENESS. NOT TO BE USED FOR FLIGHT PLANNING PURPOSES.
IDs:

KMDW - Chicago/Midway Intl, IL, US

Issued at 0859 UTC 23 May 2018
Updated at 1107 UTC 23 May 2018
Potential Impact None Slight Moderate High
Time<<24/12Z 24/13Z 24/14Z 24/15Z 24/16Z 24/17Z 24/18Z 24/19Z 24/20Z 24/21Z 24/22Z 24/23Z 25/00Z
Type
VIS
CIG
Cover
FltCat
WX
WDir
WSpd
WGst

Raw TAF
KMDW 230859Z 2309/2412 00000KT 5SM BR BCFG SCT250
  TEMPO 2310/2313 2SM BR MIFG
  FM231300 VRB03KT P6SM FEW300
  FM231800 07007KT P6SM SCT250
  TEMPO 2318/2320 08011KT


METAR Board
Radar Display
Forecast Discussion

FOR SITUATIONAL AWARENESS. NOT TO BE USED FOR FLIGHT PLANNING PURPOSES.